sensor_id;sensor_type;location;lat;lon;timestamp;P1;durP1;ratioP1;P2;durP2;ratioP2
32874;SDS011;40468;42.128;24.750;2023-07-31T00:00:10;4.55;;;1.20;;
32874;SDS011;40468;42.128;24.750;2023-07-31T00:01:43;7.53;;;1.40;;
32874;SDS011;40468;42.128;24.750;2023-07-31T00:03:14;7.75;;;1.15;;
32874;SDS011;40468;42.128;24.750;2023-07-31T00:04:47;2.63;;;1.05;;
32874;SDS011;40468;42.128;24.750;2023-07-31T00:06:19;4.90;;;1.17;;
32874;SDS011;40468;42.128;24.750;2023-07-31T00:07:50;5.32;;;1.30;;
32874;SDS011;40468;42.128;24.750;2023-07-31T00:09:24;3.20;;;1.13;;
32874;SDS011;40468;42.128;24.750;2023-07-31T00:10:55;3.83;;;1.17;;
32874;SDS011;40468;42.128;24.750;2023-07-31T00:12:26;2.58;;;1.40;;
32874;SDS011;40468;42.128;24.750;2023-07-31T00:13:57;2.65;;;1.13;;
32874;SDS011;40468;42.128;24.750;2023-07-31T00:15:29;2.08;;;1.30;;
32874;SDS011;40468;42.128;24.750;2023-07-31T00:17:01;2.40;;;1.10;;
32874;SDS011;40468;42.128;24.750;2023-07-31T00:18:32;3.67;;;1.30;;
32874;SDS011;40468;42.128;24.750;2023-07-31T00:20:05;2.20;;;1.40;;
32874;SDS011;40468;42.128;24.750;2023-07-31T00:21:38;6.03;;;1.55;;
32874;SDS011;40468;42.128;24.750;2023-07-31T00:23:09;6.45;;;1.52;;
32874;SDS011;40468;42.128;24.750;2023-07-31T00:24:41;3.80;;;1.20;;
32874;SDS011;40468;42.128;24.750;2023-07-31T00:26:12;2.47;;;1.13;;
32874;SDS011;40468;42.128;24.750;2023-07-31T00:27:44;4.93;;;1.00;;
32874;SDS011;40468;42.128;24.750;2023-07-31T00:29:16;3.05;;;1.70;;
32874;SDS011;40468;42.128;24.750;2023-07-31T00:30:47;3.22;;;1.17;;
32874;SDS011;40468;42.128;24.750;2023-07-31T00:32:18;3.92;;;1.10;;
32874;SDS011;40468;42.128;24.750;2023-07-31T00:33:50;2.30;;;1.10;;
32874;SDS011;40468;42.128;24.750;2023-07-31T00:35:22;2.53;;;1.20;;
32874;SDS011;40468;42.128;24.750;2023-07-31T00:36:54;3.10;;;1.05;;
32874;SDS011;40468;42.128;24.750;2023-07-31T00:38:25;3.90;;;1.10;;
32874;SDS011;40468;42.128;24.750;2023-07-31T00:39:57;5.95;;;1.35;;
32874;SDS011;40468;42.128;24.750;2023-07-31T00:41:27;6.72;;;1.92;;
32874;SDS011;40468;42.128;24.750;2023-07-31T00:42:59;7.22;;;1.75;;
32874;SDS011;40468;42.128;24.750;2023-07-31T00:44:30;6.13;;;1.55;;
32874;SDS011;40468;42.128;24.750;2023-07-31T00:46:02;2.53;;;1.38;;
32874;SDS011;40468;42.128;24.750;2023-07-31T00:47:34;2.20;;;1.15;;
32874;SDS011;40468;42.128;24.750;2023-07-31T00:49:04;4.68;;;1.27;;
32874;SDS011;40468;42.128;24.750;2023-07-31T00:50:38;5.57;;;1.90;;
32874;SDS011;40468;42.128;24.750;2023-07-31T00:52:10;3.47;;;1.43;;
32874;SDS011;40468;42.128;24.750;2023-07-31T00:53:42;3.22;;;1.35;;
32874;SDS011;40468;42.128;24.750;2023-07-31T00:55:13;2.50;;;1.20;;
32874;SDS011;40468;42.128;24.750;2023-07-31T00:56:45;4.15;;;1.50;;
32874;SDS011;40468;42.128;24.750;2023-07-31T00:58:16;6.15;;;1.33;;
32874;SDS011;40468;42.128;24.750;2023-07-31T00:59:48;4.13;;;1.30;;
32874;SDS011;40468;42.128;24.750;2023-07-31T01:01:19;3.40;;;1.23;;
32874;SDS011;40468;42.128;24.750;2023-07-31T01:02:52;2.05;;;1.20;;
32874;SDS011;40468;42.128;24.750;2023-07-31T01:04:23;4.38;;;1.90;;
32874;SDS011;40468;42.128;24.750;2023-07-31T01:05:59;4.82;;;1.40;;
32874;SDS011;40468;42.128;24.750;2023-07-31T01:07:41;5.35;;;1.38;;
32874;SDS011;40468;42.128;24.750;2023-07-31T01:09:22;3.97;;;1.63;;
32874;SDS011;40468;42.128;24.750;2023-07-31T01:11:06;2.25;;;1.20;;
32874;SDS011;40468;42.128;24.750;2023-07-31T01:12:45;5.97;;;1.27;;
32874;SDS011;40468;42.128;24.750;2023-07-31T01:14:17;4.32;;;1.50;;
32874;SDS011;40468;42.128;24.750;2023-07-31T01:15:48;5.72;;;2.08;;
32874;SDS011;40468;42.128;24.750;2023-07-31T01:17:19;6.10;;;1.92;;
32874;SDS011;40468;42.128;24.750;2023-07-31T01:18:51;5.18;;;1.40;;
32874;SDS011;40468;42.128;24.750;2023-07-31T01:20:22;5.55;;;2.08;;
32874;SDS011;40468;42.128;24.750;2023-07-31T01:22:02;3.92;;;1.92;;
32874;SDS011;40468;42.128;24.750;2023-07-31T01:24:01;3.20;;;1.90;;
32874;SDS011;40468;42.128;24.750;2023-07-31T01:26:01;6.30;;;2.22;;
32874;SDS011;40468;42.128;24.750;2023-07-31T01:27:38;4.45;;;2.50;;
32874;SDS011;40468;42.128;24.750;2023-07-31T01:29:16;3.63;;;2.35;;
32874;SDS011;40468;42.128;24.750;2023-07-31T01:30:56;5.95;;;1.92;;
32874;SDS011;40468;42.128;24.750;2023-07-31T01:32:31;6.40;;;2.55;;
32874;SDS011;40468;42.128;24.750;2023-07-31T01:34:03;6.78;;;2.50;;
32874;SDS011;40468;42.128;24.750;2023-07-31T01:35:36;5.95;;;2.45;;
32874;SDS011;40468;42.128;24.750;2023-07-31T01:37:08;5.18;;;2.15;;
32874;SDS011;40468;42.128;24.750;2023-07-31T01:38:39;3.60;;;2.10;;
32874;SDS011;40468;42.128;24.750;2023-07-31T01:40:11;5.43;;;2.30;;
32874;SDS011;40468;42.128;24.750;2023-07-31T01:41:43;4.78;;;2.20;;
32874;SDS011;40468;42.128;24.750;2023-07-31T01:43:15;3.08;;;2.03;;
32874;SDS011;40468;42.128;24.750;2023-07-31T01:44:47;3.85;;;2.10;;
32874;SDS011;40468;42.128;24.750;2023-07-31T01:46:18;4.55;;;2.30;;
32874;SDS011;40468;42.128;24.750;2023-07-31T01:47:50;4.05;;;2.42;;
32874;SDS011;40468;42.128;24.750;2023-07-31T01:49:20;3.70;;;2.22;;
32874;SDS011;40468;42.128;24.750;2023-07-31T01:50:52;6.25;;;2.65;;
32874;SDS011;40468;42.128;24.750;2023-07-31T01:52:26;3.70;;;2.25;;
32874;SDS011;40468;42.128;24.750;2023-07-31T01:53:58;7.25;;;3.10;;
32874;SDS011;40468;42.128;24.750;2023-07-31T01:55:29;7.22;;;2.70;;
32874;SDS011;40468;42.128;24.750;2023-07-31T01:57:02;8.98;;;2.70;;
32874;SDS011;40468;42.128;24.750;2023-07-31T01:58:33;5.70;;;2.88;;
32874;SDS011;40468;42.128;24.750;2023-07-31T02:00:05;6.00;;;3.22;;
32874;SDS011;40468;42.128;24.750;2023-07-31T02:01:37;6.03;;;2.40;;
32874;SDS011;40468;42.128;24.750;2023-07-31T02:03:09;5.43;;;2.85;;
32874;SDS011;40468;42.128;24.750;2023-07-31T02:04:39;7.53;;;3.03;;
32874;SDS011;40468;42.128;24.750;2023-07-31T02:06:11;6.13;;;3.22;;
32874;SDS011;40468;42.128;24.750;2023-07-31T02:07:42;7.65;;;3.25;;
32874;SDS011;40468;42.128;24.750;2023-07-31T02:09:14;8.05;;;3.38;;
32874;SDS011;40468;42.128;24.750;2023-07-31T02:10:45;4.38;;;3.10;;
32874;SDS011;40468;42.128;24.750;2023-07-31T02:12:18;6.38;;;3.30;;
32874;SDS011;40468;42.128;24.750;2023-07-31T02:13:49;7.32;;;4.07;;
32874;SDS011;40468;42.128;24.750;2023-07-31T02:15:21;12.23;;;3.90;;
32874;SDS011;40468;42.128;24.750;2023-07-31T02:16:52;8.23;;;3.95;;
32874;SDS011;40468;42.128;24.750;2023-07-31T02:18:23;5.72;;;3.58;;
32874;SDS011;40468;42.128;24.750;2023-07-31T02:19:54;12.30;;;3.88;;
32874;SDS011;40468;42.128;24.750;2023-07-31T02:21:26;5.97;;;2.90;;
32874;SDS011;40468;42.128;24.750;2023-07-31T02:22:57;5.82;;;2.97;;
32874;SDS011;40468;42.128;24.750;2023-07-31T02:24:29;8.05;;;3.00;;
32874;SDS011;40468;42.128;24.750;2023-07-31T02:26:00;6.82;;;2.83;;
32874;SDS011;40468;42.128;24.750;2023-07-31T02:27:33;3.83;;;2.38;;
32874;SDS011;40468;42.128;24.750;2023-07-31T02:29:04;4.45;;;2.17;;
32874;SDS011;40468;42.128;24.750;2023-07-31T02:30:36;5.20;;;2.20;;
32874;SDS011;40468;42.128;24.750;2023-07-31T02:32:07;13.02;;;2.60;;
32874;SDS011;40468;42.128;24.750;2023-07-31T02:33:39;3.35;;;1.98;;
32874;SDS011;40468;42.128;24.750;2023-07-31T02:35:09;6.97;;;2.00;;
32874;SDS011;40468;42.128;24.750;2023-07-31T02:36:45;11.52;;;2.28;;
32874;SDS011;40468;42.128;24.750;2023-07-31T02:38:16;5.25;;;2.30;;
32874;SDS011;40468;42.128;24.750;2023-07-31T02:39:48;3.65;;;1.95;;
32874;SDS011;40468;42.128;24.750;2023-07-31T02:41:19;3.75;;;2.20;;
32874;SDS011;40468;42.128;24.750;2023-07-31T02:42:52;6.50;;;2.58;;
32874;SDS011;40468;42.128;24.750;2023-07-31T02:44:23;6.60;;;1.95;;
32874;SDS011;40468;42.128;24.750;2023-07-31T02:45:54;5.95;;;2.50;;
32874;SDS011;40468;42.128;24.750;2023-07-31T02:47:25;5.93;;;2.50;;
32874;SDS011;40468;42.128;24.750;2023-07-31T02:48:57;7.13;;;2.42;;
32874;SDS011;40468;42.128;24.750;2023-07-31T02:50:28;4.28;;;2.58;;
32874;SDS011;40468;42.128;24.750;2023-07-31T02:52:00;11.82;;;3.00;;
32874;SDS011;40468;42.128;24.750;2023-07-31T02:53:30;5.20;;;2.55;;
32874;SDS011;40468;42.128;24.750;2023-07-31T02:55:02;7.15;;;2.65;;
32874;SDS011;40468;42.128;24.750;2023-07-31T02:56:34;5.22;;;2.83;;
32874;SDS011;40468;42.128;24.750;2023-07-31T02:58:07;5.90;;;2.45;;
32874;SDS011;40468;42.128;24.750;2023-07-31T02:59:38;6.15;;;2.92;;
32874;SDS011;40468;42.128;24.750;2023-07-31T03:01:10;4.10;;;2.80;;
32874;SDS011;40468;42.128;24.750;2023-07-31T03:02:41;4.72;;;2.83;;
32874;SDS011;40468;42.128;24.750;2023-07-31T03:04:12;4.65;;;3.10;;
32874;SDS011;40468;42.128;24.750;2023-07-31T03:05:44;6.40;;;2.63;;
32874;SDS011;40468;42.128;24.750;2023-07-31T03:07:16;6.40;;;2.72;;
32874;SDS011;40468;42.128;24.750;2023-07-31T03:08:47;5.32;;;3.10;;
32874;SDS011;40468;42.128;24.750;2023-07-31T03:10:18;10.00;;;2.97;;
32874;SDS011;40468;42.128;24.750;2023-07-31T03:11:49;6.47;;;3.13;;
32874;SDS011;40468;42.128;24.750;2023-07-31T03:13:22;8.35;;;3.13;;
32874;SDS011;40468;42.128;24.750;2023-07-31T03:14:53;5.28;;;2.95;;
32874;SDS011;40468;42.128;24.750;2023-07-31T03:16:25;7.43;;;2.95;;
32874;SDS011;40468;42.128;24.750;2023-07-31T03:17:56;4.13;;;3.10;;
32874;SDS011;40468;42.128;24.750;2023-07-31T03:19:30;6.68;;;2.83;;
32874;SDS011;40468;42.128;24.750;2023-07-31T03:21:01;15.02;;;4.65;;
32874;SDS011;40468;42.128;24.750;2023-07-31T03:22:32;5.20;;;3.33;;
32874;SDS011;40468;42.128;24.750;2023-07-31T03:24:05;7.30;;;4.27;;
32874;SDS011;40468;42.128;24.750;2023-07-31T03:25:36;8.55;;;4.13;;
32874;SDS011;40468;42.128;24.750;2023-07-31T03:27:07;7.88;;;3.90;;
32874;SDS011;40468;42.128;24.750;2023-07-31T03:28:40;7.18;;;3.80;;
32874;SDS011;40468;42.128;24.750;2023-07-31T03:30:11;6.90;;;3.70;;
32874;SDS011;40468;42.128;24.750;2023-07-31T03:31:42;8.55;;;3.97;;
32874;SDS011;40468;42.128;24.750;2023-07-31T03:33:14;9.02;;;4.28;;
32874;SDS011;40468;42.128;24.750;2023-07-31T03:34:45;6.72;;;4.45;;
32874;SDS011;40468;42.128;24.750;2023-07-31T03:36:16;8.05;;;4.25;;
32874;SDS011;40468;42.128;24.750;2023-07-31T03:37:48;5.20;;;4.38;;
32874;SDS011;40468;42.128;24.750;2023-07-31T03:39:20;7.05;;;4.40;;
32874;SDS011;40468;42.128;24.750;2023-07-31T03:40:51;6.95;;;4.70;;
32874;SDS011;40468;42.128;24.750;2023-07-31T03:42:22;6.28;;;4.40;;
32874;SDS011;40468;42.128;24.750;2023-07-31T03:43:56;9.85;;;4.70;;
32874;SDS011;40468;42.128;24.750;2023-07-31T03:45:27;7.18;;;4.63;;
32874;SDS011;40468;42.128;24.750;2023-07-31T03:46:59;7.00;;;4.35;;
32874;SDS011;40468;42.128;24.750;2023-07-31T03:48:29;9.75;;;4.95;;
32874;SDS011;40468;42.128;24.750;2023-07-31T03:50:01;13.55;;;4.38;;
32874;SDS011;40468;42.128;24.750;2023-07-31T03:51:32;7.30;;;4.47;;
32874;SDS011;40468;42.128;24.750;2023-07-31T03:53:04;7.35;;;4.68;;
32874;SDS011;40468;42.128;24.750;2023-07-31T03:54:35;7.15;;;4.90;;
32874;SDS011;40468;42.128;24.750;2023-07-31T03:56:07;10.13;;;5.25;;
32874;SDS011;40468;42.128;24.750;2023-07-31T03:57:37;9.27;;;4.80;;
32874;SDS011;40468;42.128;24.750;2023-07-31T03:59:11;10.93;;;4.95;;
32874;SDS011;40468;42.128;24.750;2023-07-31T04:00:41;6.85;;;3.95;;
32874;SDS011;40468;42.128;24.750;2023-07-31T04:02:13;9.95;;;4.65;;
32874;SDS011;40468;42.128;24.750;2023-07-31T04:03:44;8.75;;;4.45;;
32874;SDS011;40468;42.128;24.750;2023-07-31T04:05:16;8.05;;;4.20;;
32874;SDS011;40468;42.128;24.750;2023-07-31T04:06:47;9.82;;;3.83;;
32874;SDS011;40468;42.128;24.750;2023-07-31T04:08:19;6.30;;;3.83;;
32874;SDS011;40468;42.128;24.750;2023-07-31T04:09:50;6.80;;;3.90;;
32874;SDS011;40468;42.128;24.750;2023-07-31T04:11:21;7.22;;;3.65;;
32874;SDS011;40468;42.128;24.750;2023-07-31T04:12:52;8.32;;;4.20;;
32874;SDS011;40468;42.128;24.750;2023-07-31T04:14:25;8.25;;;4.20;;
32874;SDS011;40468;42.128;24.750;2023-07-31T04:15:56;5.05;;;3.70;;
32874;SDS011;40468;42.128;24.750;2023-07-31T04:17:28;10.75;;;4.15;;
32874;SDS011;40468;42.128;24.750;2023-07-31T04:18:59;8.23;;;4.90;;
32874;SDS011;40468;42.128;24.750;2023-07-31T04:20:31;5.72;;;3.78;;
32874;SDS011;40468;42.128;24.750;2023-07-31T04:22:01;6.55;;;3.78;;
32874;SDS011;40468;42.128;24.750;2023-07-31T04:23:33;9.05;;;4.20;;
32874;SDS011;40468;42.128;24.750;2023-07-31T04:25:08;6.38;;;3.85;;
32874;SDS011;40468;42.128;24.750;2023-07-31T04:26:39;5.82;;;3.75;;
32874;SDS011;40468;42.128;24.750;2023-07-31T04:28:11;8.70;;;4.00;;
32874;SDS011;40468;42.128;24.750;2023-07-31T04:29:43;8.30;;;4.22;;
32874;SDS011;40468;42.128;24.750;2023-07-31T04:31:17;8.02;;;4.28;;
32874;SDS011;40468;42.128;24.750;2023-07-31T04:32:47;7.63;;;3.67;;
32874;SDS011;40468;42.128;24.750;2023-07-31T04:34:19;5.75;;;3.65;;
32874;SDS011;40468;42.128;24.750;2023-07-31T04:35:50;6.80;;;4.25;;
32874;SDS011;40468;42.128;24.750;2023-07-31T04:37:23;6.70;;;4.45;;
32874;SDS011;40468;42.128;24.750;2023-07-31T04:38:54;14.10;;;6.88;;
32874;SDS011;40468;42.128;24.750;2023-07-31T04:40:25;9.95;;;5.93;;
32874;SDS011;40468;42.128;24.750;2023-07-31T04:41:56;12.77;;;8.85;;
32874;SDS011;40468;42.128;24.750;2023-07-31T04:43:30;6.28;;;5.30;;
32874;SDS011;40468;42.128;24.750;2023-07-31T04:45:02;11.30;;;6.03;;
32874;SDS011;40468;42.128;24.750;2023-07-31T04:46:34;8.43;;;4.45;;
32874;SDS011;40468;42.128;24.750;2023-07-31T04:48:05;16.33;;;12.50;;
32874;SDS011;40468;42.128;24.750;2023-07-31T04:49:37;10.93;;;6.20;;
32874;SDS011;40468;42.128;24.750;2023-07-31T04:51:08;11.18;;;6.38;;
32874;SDS011;40468;42.128;24.750;2023-07-31T04:52:40;11.50;;;5.95;;
32874;SDS011;40468;42.128;24.750;2023-07-31T04:54:11;6.65;;;4.72;;
32874;SDS011;40468;42.128;24.750;2023-07-31T04:55:45;10.48;;;4.55;;
32874;SDS011;40468;42.128;24.750;2023-07-31T04:57:15;8.35;;;4.93;;
32874;SDS011;40468;42.128;24.750;2023-07-31T04:58:47;8.77;;;4.40;;
32874;SDS011;40468;42.128;24.750;2023-07-31T05:00:20;9.60;;;3.95;;
32874;SDS011;40468;42.128;24.750;2023-07-31T05:01:51;7.70;;;4.78;;
32874;SDS011;40468;42.128;24.750;2023-07-31T05:03:23;10.00;;;7.00;;
32874;SDS011;40468;42.128;24.750;2023-07-31T05:04:55;10.63;;;5.13;;
32874;SDS011;40468;42.128;24.750;2023-07-31T05:06:27;7.15;;;4.75;;
32874;SDS011;40468;42.128;24.750;2023-07-31T05:07:58;8.85;;;4.60;;
32874;SDS011;40468;42.128;24.750;2023-07-31T05:09:30;6.78;;;4.30;;
32874;SDS011;40468;42.128;24.750;2023-07-31T05:11:02;13.77;;;4.13;;
32874;SDS011;40468;42.128;24.750;2023-07-31T05:12:34;7.50;;;4.22;;
32874;SDS011;40468;42.128;24.750;2023-07-31T05:14:06;10.05;;;4.53;;
32874;SDS011;40468;42.128;24.750;2023-07-31T05:15:39;6.70;;;4.40;;
32874;SDS011;40468;42.128;24.750;2023-07-31T05:17:11;7.88;;;3.97;;
32874;SDS011;40468;42.128;24.750;2023-07-31T05:18:44;7.68;;;4.13;;
32874;SDS011;40468;42.128;24.750;2023-07-31T05:20:15;5.63;;;4.25;;
32874;SDS011;40468;42.128;24.750;2023-07-31T05:21:47;6.40;;;3.88;;
32874;SDS011;40468;42.128;24.750;2023-07-31T05:23:18;4.90;;;3.97;;
32874;SDS011;40468;42.128;24.750;2023-07-31T05:24:50;6.50;;;4.05;;
32874;SDS011;40468;42.128;24.750;2023-07-31T05:26:21;5.18;;;3.60;;
32874;SDS011;40468;42.128;24.750;2023-07-31T05:27:53;5.38;;;3.35;;
32874;SDS011;40468;42.128;24.750;2023-07-31T05:29:25;7.22;;;3.80;;
32874;SDS011;40468;42.128;24.750;2023-07-31T05:31:00;10.05;;;3.72;;
32874;SDS011;40468;42.128;24.750;2023-07-31T05:32:31;9.75;;;4.40;;
32874;SDS011;40468;42.128;24.750;2023-07-31T05:34:02;10.63;;;4.20;;
32874;SDS011;40468;42.128;24.750;2023-07-31T05:35:35;9.05;;;4.15;;
32874;SDS011;40468;42.128;24.750;2023-07-31T05:37:07;7.70;;;3.88;;
32874;SDS011;40468;42.128;24.750;2023-07-31T05:38:38;8.63;;;3.58;;
32874;SDS011;40468;42.128;24.750;2023-07-31T05:40:09;5.28;;;3.40;;
32874;SDS011;40468;42.128;24.750;2023-07-31T05:41:42;7.93;;;4.03;;
32874;SDS011;40468;42.128;24.750;2023-07-31T05:43:13;5.60;;;3.50;;
32874;SDS011;40468;42.128;24.750;2023-07-31T05:44:45;5.13;;;3.72;;
32874;SDS011;40468;42.128;24.750;2023-07-31T05:46:17;7.80;;;4.13;;
32874;SDS011;40468;42.128;24.750;2023-07-31T05:49:20;11.98;;;4.53;;
32874;SDS011;40468;42.128;24.750;2023-07-31T05:50:52;7.90;;;4.43;;
32874;SDS011;40468;42.128;24.750;2023-07-31T05:52:24;7.07;;;4.70;;
32874;SDS011;40468;42.128;24.750;2023-07-31T05:53:55;9.23;;;4.80;;
32874;SDS011;40468;42.128;24.750;2023-07-31T05:55:26;7.82;;;4.63;;
32874;SDS011;40468;42.128;24.750;2023-07-31T05:56:58;6.75;;;4.70;;
32874;SDS011;40468;42.128;24.750;2023-07-31T05:58:29;7.55;;;4.60;;
32874;SDS011;40468;42.128;24.750;2023-07-31T06:00:02;6.72;;;5.15;;
32874;SDS011;40468;42.128;24.750;2023-07-31T06:01:34;10.85;;;4.53;;
32874;SDS011;40468;42.128;24.750;2023-07-31T06:03:09;11.13;;;4.70;;
32874;SDS011;40468;42.128;24.750;2023-07-31T06:04:40;10.25;;;5.38;;
32874;SDS011;40468;42.128;24.750;2023-07-31T06:06:12;9.65;;;5.07;;
32874;SDS011;40468;42.128;24.750;2023-07-31T06:07:43;8.40;;;5.40;;
32874;SDS011;40468;42.128;24.750;2023-07-31T06:09:16;8.95;;;5.68;;
32874;SDS011;40468;42.128;24.750;2023-07-31T06:10:47;8.00;;;5.18;;
32874;SDS011;40468;42.128;24.750;2023-07-31T06:12:19;10.95;;;5.53;;
32874;SDS011;40468;42.128;24.750;2023-07-31T06:13:50;6.47;;;4.85;;
32874;SDS011;40468;42.128;24.750;2023-07-31T06:15:22;7.65;;;6.05;;
32874;SDS011;40468;42.128;24.750;2023-07-31T06:16:54;8.15;;;5.35;;
32874;SDS011;40468;42.128;24.750;2023-07-31T06:19:56;10.20;;;5.40;;
32874;SDS011;40468;42.128;24.750;2023-07-31T06:21:28;7.82;;;5.47;;
32874;SDS011;40468;42.128;24.750;2023-07-31T06:23:00;11.27;;;6.88;;
32874;SDS011;40468;42.128;24.750;2023-07-31T06:24:32;11.75;;;5.95;;
32874;SDS011;40468;42.128;24.750;2023-07-31T06:26:04;9.73;;;6.57;;
32874;SDS011;40468;42.128;24.750;2023-07-31T06:27:36;10.00;;;6.63;;
32874;SDS011;40468;42.128;24.750;2023-07-31T06:29:06;9.07;;;6.55;;
32874;SDS011;40468;42.128;24.750;2023-07-31T06:30:38;8.27;;;6.35;;
32874;SDS011;40468;42.128;24.750;2023-07-31T06:32:11;8.35;;;6.30;;
32874;SDS011;40468;42.128;24.750;2023-07-31T06:33:43;13.88;;;6.97;;
32874;SDS011;40468;42.128;24.750;2023-07-31T06:35:14;9.10;;;6.55;;
32874;SDS011;40468;42.128;24.750;2023-07-31T06:36:46;11.30;;;7.40;;
32874;SDS011;40468;42.128;24.750;2023-07-31T06:38:18;13.48;;;6.57;;
32874;SDS011;40468;42.128;24.750;2023-07-31T06:39:54;7.93;;;6.25;;
32874;SDS011;40468;42.128;24.750;2023-07-31T06:41:26;12.13;;;6.95;;
32874;SDS011;40468;42.128;24.750;2023-07-31T06:42:57;9.50;;;6.53;;
32874;SDS011;40468;42.128;24.750;2023-07-31T06:44:29;10.13;;;6.10;;
32874;SDS011;40468;42.128;24.750;2023-07-31T06:46:04;12.02;;;7.10;;
32874;SDS011;40468;42.128;24.750;2023-07-31T06:47:39;10.60;;;6.88;;
32874;SDS011;40468;42.128;24.750;2023-07-31T06:49:10;9.85;;;7.00;;
32874;SDS011;40468;42.128;24.750;2023-07-31T06:50:42;9.65;;;7.53;;
32874;SDS011;40468;42.128;24.750;2023-07-31T06:52:13;15.88;;;7.43;;
32874;SDS011;40468;42.128;24.750;2023-07-31T06:53:45;11.23;;;7.40;;
32874;SDS011;40468;42.128;24.750;2023-07-31T06:55:17;11.38;;;7.30;;
32874;SDS011;40468;42.128;24.750;2023-07-31T06:56:50;11.02;;;7.38;;
32874;SDS011;40468;42.128;24.750;2023-07-31T06:58:22;10.02;;;7.32;;
32874;SDS011;40468;42.128;24.750;2023-07-31T06:59:53;11.63;;;7.75;;
32874;SDS011;40468;42.128;24.750;2023-07-31T07:01:25;12.00;;;6.57;;
32874;SDS011;40468;42.128;24.750;2023-07-31T07:02:59;10.90;;;7.57;;
32874;SDS011;40468;42.128;24.750;2023-07-31T07:04:30;12.02;;;8.05;;
32874;SDS011;40468;42.128;24.750;2023-07-31T07:06:02;14.25;;;7.00;;
32874;SDS011;40468;42.128;24.750;2023-07-31T07:07:33;9.77;;;7.45;;
32874;SDS011;40468;42.128;24.750;2023-07-31T07:09:06;11.95;;;7.60;;
32874;SDS011;40468;42.128;24.750;2023-07-31T07:10:38;7.45;;;6.53;;
32874;SDS011;40468;42.128;24.750;2023-07-31T07:12:10;13.13;;;8.05;;
32874;SDS011;40468;42.128;24.750;2023-07-31T07:13:41;11.05;;;7.38;;
32874;SDS011;40468;42.128;24.750;2023-07-31T07:15:13;11.07;;;6.72;;
32874;SDS011;40468;42.128;24.750;2023-07-31T07:16:44;8.70;;;7.25;;
32874;SDS011;40468;42.128;24.750;2023-07-31T07:18:18;12.05;;;7.78;;
32874;SDS011;40468;42.128;24.750;2023-07-31T07:19:51;12.32;;;8.07;;
32874;SDS011;40468;42.128;24.750;2023-07-31T07:21:22;10.00;;;8.27;;
32874;SDS011;40468;42.128;24.750;2023-07-31T07:22:54;10.83;;;8.43;;
32874;SDS011;40468;42.128;24.750;2023-07-31T07:24:25;12.18;;;7.95;;
32874;SDS011;40468;42.128;24.750;2023-07-31T07:25:57;10.10;;;7.75;;
32874;SDS011;40468;42.128;24.750;2023-07-31T07:27:28;12.75;;;8.88;;
32874;SDS011;40468;42.128;24.750;2023-07-31T07:29:00;10.50;;;8.75;;
32874;SDS011;40468;42.128;24.750;2023-07-31T07:30:32;14.67;;;9.17;;
32874;SDS011;40468;42.128;24.750;2023-07-31T07:32:04;10.25;;;7.75;;
32874;SDS011;40468;42.128;24.750;2023-07-31T07:33:37;11.07;;;9.25;;
32874;SDS011;40468;42.128;24.750;2023-07-31T07:35:08;13.52;;;9.10;;
32874;SDS011;40468;42.128;24.750;2023-07-31T07:36:40;33.78;;;21.27;;
32874;SDS011;40468;42.128;24.750;2023-07-31T07:38:13;48.53;;;37.45;;
32874;SDS011;40468;42.128;24.750;2023-07-31T07:39:45;13.25;;;10.82;;
32874;SDS011;40468;42.128;24.750;2023-07-31T07:41:17;11.30;;;9.25;;
32874;SDS011;40468;42.128;24.750;2023-07-31T07:42:49;9.82;;;8.13;;
32874;SDS011;40468;42.128;24.750;2023-07-31T07:44:20;17.80;;;9.30;;
32874;SDS011;40468;42.128;24.750;2023-07-31T07:45:52;14.70;;;9.88;;
32874;SDS011;40468;42.128;24.750;2023-07-31T07:47:23;11.05;;;8.77;;
32874;SDS011;40468;42.128;24.750;2023-07-31T07:48:56;16.10;;;10.05;;
32874;SDS011;40468;42.128;24.750;2023-07-31T07:50:27;12.02;;;10.05;;
32874;SDS011;40468;42.128;24.750;2023-07-31T07:51:59;12.52;;;10.23;;
32874;SDS011;40468;42.128;24.750;2023-07-31T07:53:30;15.13;;;11.23;;
32874;SDS011;40468;42.128;24.750;2023-07-31T07:55:02;12.38;;;9.57;;
32874;SDS011;40468;42.128;24.750;2023-07-31T07:56:34;13.30;;;10.23;;
32874;SDS011;40468;42.128;24.750;2023-07-31T07:58:06;14.05;;;10.77;;
32874;SDS011;40468;42.128;24.750;2023-07-31T07:59:38;15.30;;;11.73;;
32874;SDS011;40468;42.128;24.750;2023-07-31T08:01:10;17.67;;;12.00;;
32874;SDS011;40468;42.128;24.750;2023-07-31T08:02:41;16.77;;;10.98;;
32874;SDS011;40468;42.128;24.750;2023-07-31T08:04:14;13.10;;;9.80;;
32874;SDS011;40468;42.128;24.750;2023-07-31T08:05:45;11.98;;;10.00;;
32874;SDS011;40468;42.128;24.750;2023-07-31T08:07:17;15.52;;;10.40;;
32874;SDS011;40468;42.128;24.750;2023-07-31T08:08:49;13.15;;;10.35;;
32874;SDS011;40468;42.128;24.750;2023-07-31T08:10:27;10.68;;;9.35;;
32874;SDS011;40468;42.128;24.750;2023-07-31T08:12:06;14.20;;;10.10;;
32874;SDS011;40468;42.128;24.750;2023-07-31T08:13:42;11.48;;;8.38;;
32874;SDS011;40468;42.128;24.750;2023-07-31T08:15:21;11.00;;;9.13;;
32874;SDS011;40468;42.128;24.750;2023-07-31T08:17:18;10.77;;;8.48;;
32874;SDS011;40468;42.128;24.750;2023-07-31T08:18:50;14.90;;;8.60;;
32874;SDS011;40468;42.128;24.750;2023-07-31T08:20:23;10.85;;;8.65;;
32874;SDS011;40468;42.128;24.750;2023-07-31T08:21:55;11.23;;;9.18;;
32874;SDS011;40468;42.128;24.750;2023-07-31T08:23:26;13.68;;;9.45;;
32874;SDS011;40468;42.128;24.750;2023-07-31T08:24:58;14.73;;;9.98;;
32874;SDS011;40468;42.128;24.750;2023-07-31T08:26:30;14.65;;;10.70;;
32874;SDS011;40468;42.128;24.750;2023-07-31T08:28:01;15.82;;;10.40;;
32874;SDS011;40468;42.128;24.750;2023-07-31T08:29:33;13.13;;;10.88;;
32874;SDS011;40468;42.128;24.750;2023-07-31T08:31:04;13.68;;;10.77;;
32874;SDS011;40468;42.128;24.750;2023-07-31T08:32:36;15.30;;;10.52;;
32874;SDS011;40468;42.128;24.750;2023-07-31T08:34:07;14.30;;;10.70;;
32874;SDS011;40468;42.128;24.750;2023-07-31T08:35:40;12.20;;;9.75;;
32874;SDS011;40468;42.128;24.750;2023-07-31T08:37:11;16.55;;;11.18;;
32874;SDS011;40468;42.128;24.750;2023-07-31T08:38:44;13.43;;;10.75;;
32874;SDS011;40468;42.128;24.750;2023-07-31T08:41:48;11.88;;;9.65;;
32874;SDS011;40468;42.128;24.750;2023-07-31T08:43:20;14.83;;;10.37;;
32874;SDS011;40468;42.128;24.750;2023-07-31T08:44:55;13.25;;;9.90;;
32874;SDS011;40468;42.128;24.750;2023-07-31T08:46:28;12.65;;;9.60;;
32874;SDS011;40468;42.128;24.750;2023-07-31T08:48:02;17.52;;;9.70;;
32874;SDS011;40468;42.128;24.750;2023-07-31T08:49:35;13.63;;;9.95;;
32874;SDS011;40468;42.128;24.750;2023-07-31T08:51:13;12.27;;;9.73;;
32874;SDS011;40468;42.128;24.750;2023-07-31T08:52:45;11.50;;;8.73;;
32874;SDS011;40468;42.128;24.750;2023-07-31T08:54:17;12.10;;;9.70;;
32874;SDS011;40468;42.128;24.750;2023-07-31T08:55:48;11.63;;;8.73;;
32874;SDS011;40468;42.128;24.750;2023-07-31T08:57:21;13.07;;;8.35;;
32874;SDS011;40468;42.128;24.750;2023-07-31T08:58:52;14.70;;;9.82;;
32874;SDS011;40468;42.128;24.750;2023-07-31T09:00:26;11.95;;;8.57;;
32874;SDS011;40468;42.128;24.750;2023-07-31T09:01:58;10.45;;;8.20;;
32874;SDS011;40468;42.128;24.750;2023-07-31T09:03:36;13.50;;;9.10;;
32874;SDS011;40468;42.128;24.750;2023-07-31T09:06:44;11.02;;;7.72;;
32874;SDS011;40468;42.128;24.750;2023-07-31T09:08:19;9.57;;;8.35;;
32874;SDS011;40468;42.128;24.750;2023-07-31T09:09:56;13.75;;;9.27;;